sensor_id;sensor_type;location;lat;lon;timestamp;temperature;humidity
58638;DHT22;54976;51.510;7.522;2023-02-28T00:02:16;1.00;93.80
58638;DHT22;54976;51.510;7.522;2023-02-28T00:05:21;0.70;93.70
58638;DHT22;54976;51.510;7.522;2023-02-28T00:08:22;0.80;93.70
58638;DHT22;54976;51.510;7.522;2023-02-28T00:11:22;0.80;93.70
58638;DHT22;54976;51.510;7.522;2023-02-28T00:14:23;0.60;93.80
58638;DHT22;54976;51.510;7.522;2023-02-28T00:17:24;0.80;94.10
58638;DHT22;54976;51.510;7.522;2023-02-28T00:20:25;0.80;94.10
58638;DHT22;54976;51.510;7.522;2023-02-28T00:23:27;0.70;93.90
58638;DHT22;54976;51.510;7.522;2023-02-28T00:26:27;0.50;94.10
58638;DHT22;54976;51.510;7.522;2023-02-28T00:29:28;0.60;94.30
58638;DHT22;54976;51.510;7.522;2023-02-28T00:32:28;0.60;94.40
58638;DHT22;54976;51.510;7.522;2023-02-28T00:35:30;0.30;94.20
58638;DHT22;54976;51.510;7.522;2023-02-28T00:38:30;0.40;94.30
58638;DHT22;54976;51.510;7.522;2023-02-28T00:41:31;0.40;94.50
58638;DHT22;54976;51.510;7.522;2023-02-28T00:44:32;0.60;94.80
58638;DHT22;54976;51.510;7.522;2023-02-28T00:47:32;0.60;95.10
58638;DHT22;54976;51.510;7.522;2023-02-28T00:50:33;0.20;95.00
58638;DHT22;54976;51.510;7.522;2023-02-28T00:53:34;0.20;95.10
58638;DHT22;54976;51.510;7.522;2023-02-28T00:56:34;0.20;95.10
58638;DHT22;54976;51.510;7.522;2023-02-28T00:59:35;0.10;95.00
58638;DHT22;54976;51.510;7.522;2023-02-28T01:02:36;0.00;94.90
58638;DHT22;54976;51.510;7.522;2023-02-28T01:05:36;-0.20;95.00
58638;DHT22;54976;51.510;7.522;2023-02-28T01:08:37;-0.10;95.30
58638;DHT22;54976;51.510;7.522;2023-02-28T01:11:38;-0.30;95.30
58638;DHT22;54976;51.510;7.522;2023-02-28T01:14:39;-0.50;95.70
58638;DHT22;54976;51.510;7.522;2023-02-28T01:17:40;-0.50;95.90
58638;DHT22;54976;51.510;7.522;2023-02-28T01:20:40;-0.60;95.90
58638;DHT22;54976;51.510;7.522;2023-02-28T01:23:41;-0.60;96.20
58638;DHT22;54976;51.510;7.522;2023-02-28T01:26:41;-0.60;96.60
58638;DHT22;54976;51.510;7.522;2023-02-28T01:29:42;-0.80;96.90
58638;DHT22;54976;51.510;7.522;2023-02-28T01:32:43;-0.50;97.20
58638;DHT22;54976;51.510;7.522;2023-02-28T01:35:43;-0.50;97.30
58638;DHT22;54976;51.510;7.522;2023-02-28T01:38:44;-0.70;97.60
58638;DHT22;54976;51.510;7.522;2023-02-28T01:41:45;-0.80;97.70
58638;DHT22;54976;51.510;7.522;2023-02-28T01:45:40;-0.70;97.60
58638;DHT22;54976;51.510;7.522;2023-02-28T01:48:32;-0.60;97.70
58638;DHT22;54976;51.510;7.522;2023-02-28T01:51:37;-0.60;98.00
58638;DHT22;54976;51.510;7.522;2023-02-28T01:54:38;-0.80;97.80
58638;DHT22;54976;51.510;7.522;2023-02-28T01:57:43;-0.70;97.80
58638;DHT22;54976;51.510;7.522;2023-02-28T02:00:46;-0.90;98.10
58638;DHT22;54976;51.510;7.522;2023-02-28T02:03:59;-0.90;98.00
58638;DHT22;54976;51.510;7.522;2023-02-28T02:07:00;-0.90;98.50
58638;DHT22;54976;51.510;7.522;2023-02-28T02:10:15;-0.60;99.30
58638;DHT22;54976;51.510;7.522;2023-02-28T02:16:44;-0.60;98.80
58638;DHT22;54976;51.510;7.522;2023-02-28T02:36:38;-0.40;97.90
58638;DHT22;54976;51.510;7.522;2023-02-28T02:40:08;-0.40;97.70
58638;DHT22;54976;51.510;7.522;2023-02-28T02:43:16;-0.30;97.30
58638;DHT22;54976;51.510;7.522;2023-02-28T02:49:32;-0.20;96.90
58638;DHT22;54976;51.510;7.522;2023-02-28T02:52:40;-0.40;96.80
58638;DHT22;54976;51.510;7.522;2023-02-28T02:55:45;-0.40;96.90
58638;DHT22;54976;51.510;7.522;2023-02-28T02:58:49;-0.40;96.80
58638;DHT22;54976;51.510;7.522;2023-02-28T03:01:55;-0.40;96.70
58638;DHT22;54976;51.510;7.522;2023-02-28T03:05:01;-0.50;96.50
58638;DHT22;54976;51.510;7.522;2023-02-28T03:08:04;-0.40;96.50
58638;DHT22;54976;51.510;7.522;2023-02-28T03:11:11;-0.30;96.40
58638;DHT22;54976;51.510;7.522;2023-02-28T03:27:27;-0.50;96.40
58638;DHT22;54976;51.510;7.522;2023-02-28T03:33:50;-0.70;96.40
58638;DHT22;54976;51.510;7.522;2023-02-28T03:36:59;-0.50;96.30
58638;DHT22;54976;51.510;7.522;2023-02-28T03:40:08;-0.50;96.00
58638;DHT22;54976;51.510;7.522;2023-02-28T03:43:17;-0.50;95.90
58638;DHT22;54976;51.510;7.522;2023-02-28T03:46:22;-0.30;96.00
58638;DHT22;54976;51.510;7.522;2023-02-28T03:49:28;-0.70;95.50
58638;DHT22;54976;51.510;7.522;2023-02-28T03:52:36;-0.70;95.70
58638;DHT22;54976;51.510;7.522;2023-02-28T03:55:42;-0.60;95.70
58638;DHT22;54976;51.510;7.522;2023-02-28T03:58:46;-0.90;95.50
58638;DHT22;54976;51.510;7.522;2023-02-28T04:01:49;-0.80;95.70
58638;DHT22;54976;51.510;7.522;2023-02-28T04:04:50;-0.80;96.00
58638;DHT22;54976;51.510;7.522;2023-02-28T04:07:51;-0.70;96.20
58638;DHT22;54976;51.510;7.522;2023-02-28T04:11:08;-0.70;96.10
58638;DHT22;54976;51.510;7.522;2023-02-28T04:14:13;-1.30;95.80
58638;DHT22;54976;51.510;7.522;2023-02-28T04:17:13;-0.80;96.50
58638;DHT22;54976;51.510;7.522;2023-02-28T04:20:14;-1.00;96.40
58638;DHT22;54976;51.510;7.522;2023-02-28T04:23:14;-1.10;96.60
58638;DHT22;54976;51.510;7.522;2023-02-28T04:26:15;-1.00;96.70
58638;DHT22;54976;51.510;7.522;2023-02-28T04:29:34;-1.10;97.20
58638;DHT22;54976;51.510;7.522;2023-02-28T04:32:34;-1.20;97.20
58638;DHT22;54976;51.510;7.522;2023-02-28T04:35:35;-1.30;97.50
58638;DHT22;54976;51.510;7.522;2023-02-28T04:38:37;-1.40;97.70
58638;DHT22;54976;51.510;7.522;2023-02-28T04:41:38;-1.30;97.40
58638;DHT22;54976;51.510;7.522;2023-02-28T04:44:39;-1.70;97.60
58638;DHT22;54976;51.510;7.522;2023-02-28T04:47:39;-1.50;98.20
58638;DHT22;54976;51.510;7.522;2023-02-28T04:50:40;-1.60;98.80
58638;DHT22;54976;51.510;7.522;2023-02-28T04:53:41;-1.70;99.40
58638;DHT22;54976;51.510;7.522;2023-02-28T04:56:42;-1.60;99.30
58638;DHT22;54976;51.510;7.522;2023-02-28T04:59:43;-1.70;99.10
58638;DHT22;54976;51.510;7.522;2023-02-28T05:02:44;-1.70;99.50
58638;DHT22;54976;51.510;7.522;2023-02-28T05:05:45;-1.40;99.90
58638;DHT22;54976;51.510;7.522;2023-02-28T05:08:45;-1.50;99.70
58638;DHT22;54976;51.510;7.522;2023-02-28T05:11:46;-1.60;99.70
58638;DHT22;54976;51.510;7.522;2023-02-28T05:14:46;-1.60;99.90
58638;DHT22;54976;51.510;7.522;2023-02-28T05:17:47;-1.40;99.90
58638;DHT22;54976;51.510;7.522;2023-02-28T05:20:48;-1.50;99.90
58638;DHT22;54976;51.510;7.522;2023-02-28T05:23:48;-1.60;99.90
58638;DHT22;54976;51.510;7.522;2023-02-28T05:26:50;-1.30;99.90
58638;DHT22;54976;51.510;7.522;2023-02-28T05:29:52;-1.40;99.80
58638;DHT22;54976;51.510;7.522;2023-02-28T05:32:52;-1.20;99.90
58638;DHT22;54976;51.510;7.522;2023-02-28T05:35:53;-1.40;99.70
58638;DHT22;54976;51.510;7.522;2023-02-28T05:38:53;-1.50;99.70
58638;DHT22;54976;51.510;7.522;2023-02-28T05:41:54;-1.10;99.60
58638;DHT22;54976;51.510;7.522;2023-02-28T05:44:55;-1.50;99.00
58638;DHT22;54976;51.510;7.522;2023-02-28T05:47:56;-1.50;98.80
58638;DHT22;54976;51.510;7.522;2023-02-28T05:50:57;-1.70;98.90
58638;DHT22;54976;51.510;7.522;2023-02-28T05:53:59;-1.50;99.50
58638;DHT22;54976;51.510;7.522;2023-02-28T05:57:01;-1.50;99.40
58638;DHT22;54976;51.510;7.522;2023-02-28T06:00:02;-1.50;99.40
58638;DHT22;54976;51.510;7.522;2023-02-28T06:03:03;-1.50;99.30
58638;DHT22;54976;51.510;7.522;2023-02-28T06:06:04;-1.60;99.00
58638;DHT22;54976;51.510;7.522;2023-02-28T06:09:05;-1.90;98.90
58638;DHT22;54976;51.510;7.522;2023-02-28T06:12:06;-1.70;99.10
58638;DHT22;54976;51.510;7.522;2023-02-28T06:15:16;-1.80;99.50
58638;DHT22;54976;51.510;7.522;2023-02-28T06:18:17;-1.90;99.90
58638;DHT22;54976;51.510;7.522;2023-02-28T06:21:18;-1.70;99.70
58638;DHT22;54976;51.510;7.522;2023-02-28T06:24:23;-2.00;99.40
58638;DHT22;54976;51.510;7.522;2023-02-28T06:27:24;-1.80;99.10
58638;DHT22;54976;51.510;7.522;2023-02-28T06:30:25;-1.90;99.00
58638;DHT22;54976;51.510;7.522;2023-02-28T06:33:27;-1.80;99.00
58638;DHT22;54976;51.510;7.522;2023-02-28T06:36:27;-1.90;99.40
58638;DHT22;54976;51.510;7.522;2023-02-28T06:39:31;-2.10;99.20
58638;DHT22;54976;51.510;7.522;2023-02-28T06:42:31;-1.90;99.40
58638;DHT22;54976;51.510;7.522;2023-02-28T06:45:32;-1.80;99.40
58638;DHT22;54976;51.510;7.522;2023-02-28T06:48:33;-1.60;99.30
58638;DHT22;54976;51.510;7.522;2023-02-28T06:51:35;-1.60;99.10
58638;DHT22;54976;51.510;7.522;2023-02-28T06:54:37;-1.50;99.00
58638;DHT22;54976;51.510;7.522;2023-02-28T06:57:37;-1.80;98.70
58638;DHT22;54976;51.510;7.522;2023-02-28T07:00:38;-1.60;98.80
58638;DHT22;54976;51.510;7.522;2023-02-28T07:03:39;-1.50;98.70
58638;DHT22;54976;51.510;7.522;2023-02-28T07:06:39;-1.70;98.80
58638;DHT22;54976;51.510;7.522;2023-02-28T07:09:40;-1.50;98.60
58638;DHT22;54976;51.510;7.522;2023-02-28T07:12:41;-1.60;98.70
58638;DHT22;54976;51.510;7.522;2023-02-28T07:15:41;-1.40;98.70
58638;DHT22;54976;51.510;7.522;2023-02-28T07:18:42;-1.40;98.50
58638;DHT22;54976;51.510;7.522;2023-02-28T07:21:42;-1.40;98.50
58638;DHT22;54976;51.510;7.522;2023-02-28T07:24:43;-1.30;97.80
58638;DHT22;54976;51.510;7.522;2023-02-28T07:27:43;-1.40;97.50
58638;DHT22;54976;51.510;7.522;2023-02-28T07:30:44;-1.20;97.10
58638;DHT22;54976;51.510;7.522;2023-02-28T07:33:45;-0.80;96.70
58638;DHT22;54976;51.510;7.522;2023-02-28T07:36:45;-0.70;95.70
58638;DHT22;54976;51.510;7.522;2023-02-28T07:39:46;-0.60;94.70
58638;DHT22;54976;51.510;7.522;2023-02-28T07:42:46;-0.40;94.40
58638;DHT22;54976;51.510;7.522;2023-02-28T07:45:47;-0.50;94.30
58638;DHT22;54976;51.510;7.522;2023-02-28T07:48:48;0.10;94.60
58638;DHT22;54976;51.510;7.522;2023-02-28T07:51:48;0.10;93.80
58638;DHT22;54976;51.510;7.522;2023-02-28T07:54:50;-0.20;93.30
58638;DHT22;54976;51.510;7.522;2023-02-28T07:57:51;0.40;92.90
58638;DHT22;54976;51.510;7.522;2023-02-28T08:00:51;0.40;93.00
58638;DHT22;54976;51.510;7.522;2023-02-28T08:03:52;0.50;93.20
58638;DHT22;54976;51.510;7.522;2023-02-28T08:06:55;-0.20;92.60
58638;DHT22;54976;51.510;7.522;2023-02-28T08:09:56;0.00;93.30
58638;DHT22;54976;51.510;7.522;2023-02-28T08:12:57;0.50;93.70
58638;DHT22;54976;51.510;7.522;2023-02-28T08:15:57;0.40;93.60
58638;DHT22;54976;51.510;7.522;2023-02-28T08:18:58;0.90;93.90
58638;DHT22;54976;51.510;7.522;2023-02-28T08:21:59;0.70;93.20
58638;DHT22;54976;51.510;7.522;2023-02-28T08:24:59;1.00;93.10
58638;DHT22;54976;51.510;7.522;2023-02-28T08:28:00;1.20;91.20
58638;DHT22;54976;51.510;7.522;2023-02-28T08:31:00;1.30;90.40
58638;DHT22;54976;51.510;7.522;2023-02-28T08:34:12;1.50;90.30
58638;DHT22;54976;51.510;7.522;2023-02-28T08:37:13;2.30;84.90
58638;DHT22;54976;51.510;7.522;2023-02-28T08:40:13;2.10;83.10
58638;DHT22;54976;51.510;7.522;2023-02-28T08:43:18;2.40;80.20
58638;DHT22;54976;51.510;7.522;2023-02-28T08:46:19;2.90;79.80
58638;DHT22;54976;51.510;7.522;2023-02-28T08:49:20;3.60;76.80
58638;DHT22;54976;51.510;7.522;2023-02-28T08:52:20;3.60;70.60
58638;DHT22;54976;51.510;7.522;2023-02-28T08:55:21;3.90;69.00
58638;DHT22;54976;51.510;7.522;2023-02-28T08:58:22;4.50;65.70
58638;DHT22;54976;51.510;7.522;2023-02-28T09:01:25;5.30;63.90
58638;DHT22;54976;51.510;7.522;2023-02-28T09:04:27;6.00;58.70
58638;DHT22;54976;51.510;7.522;2023-02-28T09:07:30;6.30;57.60
58638;DHT22;54976;51.510;7.522;2023-02-28T09:10:31;7.00;54.10
58638;DHT22;54976;51.510;7.522;2023-02-28T09:13:32;7.30;52.80
58638;DHT22;54976;51.510;7.522;2023-02-28T09:16:34;7.70;49.20
58638;DHT22;54976;51.510;7.522;2023-02-28T09:19:34;8.40;48.30
58638;DHT22;54976;51.510;7.522;2023-02-28T09:22:35;8.90;45.30
58638;DHT22;54976;51.510;7.522;2023-02-28T09:25:36;8.70;44.00
58638;DHT22;54976;51.510;7.522;2023-02-28T09:28:37;8.10;42.50
58638;DHT22;54976;51.510;7.522;2023-02-28T09:31:37;8.50;44.80
58638;DHT22;54976;51.510;7.522;2023-02-28T09:34:38;8.70;42.80
58638;DHT22;54976;51.510;7.522;2023-02-28T09:37:39;8.90;42.80
58638;DHT22;54976;51.510;7.522;2023-02-28T09:40:49;9.60;41.80
58638;DHT22;54976;51.510;7.522;2023-02-28T09:43:52;10.10;41.10
58638;DHT22;54976;51.510;7.522;2023-02-28T09:47:08;9.70;38.50
58638;DHT22;54976;51.510;7.522;2023-02-28T09:53:42;8.50;41.10
58638;DHT22;54976;51.510;7.522;2023-02-28T09:56:44;7.20;42.60
58638;DHT22;54976;51.510;7.522;2023-02-28T10:00:15;6.30;43.10
58638;DHT22;54976;51.510;7.522;2023-02-28T10:03:35;5.40;44.30
58638;DHT22;54976;51.510;7.522;2023-02-28T10:06:45;4.90;46.40
58638;DHT22;54976;51.510;7.522;2023-02-28T10:09:51;6.30;46.20
58638;DHT22;54976;51.510;7.522;2023-02-28T10:12:54;7.20;44.00
58638;DHT22;54976;51.510;7.522;2023-02-28T10:16:01;7.50;42.80
58638;DHT22;54976;51.510;7.522;2023-02-28T10:19:11;7.80;42.30
58638;DHT22;54976;51.510;7.522;2023-02-28T10:25:57;7.70;41.10
58638;DHT22;54976;51.510;7.522;2023-02-28T10:29:00;7.10;41.40
58638;DHT22;54976;51.510;7.522;2023-02-28T10:32:02;6.60;41.80
58638;DHT22;54976;51.510;7.522;2023-02-28T10:38:16;6.80;42.30
58638;DHT22;54976;51.510;7.522;2023-02-28T10:41:29;7.10;41.60
58638;DHT22;54976;51.510;7.522;2023-02-28T10:44:30;6.70;42.10
58638;DHT22;54976;51.510;7.522;2023-02-28T10:47:31;6.50;41.70
58638;DHT22;54976;51.510;7.522;2023-02-28T10:53:48;7.10;41.60
58638;DHT22;54976;51.510;7.522;2023-02-28T10:57:23;7.20;41.10
58638;DHT22;54976;51.510;7.522;2023-02-28T11:00:34;7.30;41.20
58638;DHT22;54976;51.510;7.522;2023-02-28T11:03:35;7.40;40.40
58638;DHT22;54976;51.510;7.522;2023-02-28T11:06:36;6.80;40.60
58638;DHT22;54976;51.510;7.522;2023-02-28T11:09:39;6.60;41.90
58638;DHT22;54976;51.510;7.522;2023-02-28T11:12:41;7.70;41.40
58638;DHT22;54976;51.510;7.522;2023-02-28T11:15:56;7.20;40.10
58638;DHT22;54976;51.510;7.522;2023-02-28T11:18:57;7.00;40.20
58638;DHT22;54976;51.510;7.522;2023-02-28T11:22:01;6.40;41.00
58638;DHT22;54976;51.510;7.522;2023-02-28T11:25:07;6.30;42.60
58638;DHT22;54976;51.510;7.522;2023-02-28T11:28:27;6.00;42.70
58638;DHT22;54976;51.510;7.522;2023-02-28T11:31:28;5.80;43.10
58638;DHT22;54976;51.510;7.522;2023-02-28T11:34:31;5.90;43.50
58638;DHT22;54976;51.510;7.522;2023-02-28T11:37:32;5.60;42.70
58638;DHT22;54976;51.510;7.522;2023-02-28T11:41:01;5.60;43.70
58638;DHT22;54976;51.510;7.522;2023-02-28T11:44:16;5.50;43.20
58638;DHT22;54976;51.510;7.522;2023-02-28T11:50:54;5.70;43.00
58638;DHT22;54976;51.510;7.522;2023-02-28T11:54:04;6.50;43.20
58638;DHT22;54976;51.510;7.522;2023-02-28T12:00:54;7.80;40.50
58638;DHT22;54976;51.510;7.522;2023-02-28T12:07:16;8.50;40.80
58638;DHT22;54976;51.510;7.522;2023-02-28T12:10:26;9.50;39.00
58638;DHT22;54976;51.510;7.522;2023-02-28T12:20:39;10.40;35.70
58638;DHT22;54976;51.510;7.522;2023-02-28T12:27:23;10.20;35.70
58638;DHT22;54976;51.510;7.522;2023-02-28T12:30:28;9.50;36.40
58638;DHT22;54976;51.510;7.522;2023-02-28T12:33:38;9.70;36.70
58638;DHT22;54976;51.510;7.522;2023-02-28T12:36:41;10.70;35.80
58638;DHT22;54976;51.510;7.522;2023-02-28T12:39:50;10.20;34.80
58638;DHT22;54976;51.510;7.522;2023-02-28T12:42:58;9.40;37.00
58638;DHT22;54976;51.510;7.522;2023-02-28T12:46:07;9.60;36.90
58638;DHT22;54976;51.510;7.522;2023-02-28T12:49:15;9.90;36.10
58638;DHT22;54976;51.510;7.522;2023-02-28T12:53:26;9.80;35.70
58638;DHT22;54976;51.510;7.522;2023-02-28T13:05:53;9.80;35.70
58638;DHT22;54976;51.510;7.522;2023-02-28T13:09:07;9.40;37.60
58638;DHT22;54976;51.510;7.522;2023-02-28T13:12:13;9.90;37.50
58638;DHT22;54976;51.510;7.522;2023-02-28T13:15:27;10.20;37.40
58638;DHT22;54976;51.510;7.522;2023-02-28T13:21:43;9.70;37.10
58638;DHT22;54976;51.510;7.522;2023-02-28T13:24:46;9.40;37.80
58638;DHT22;54976;51.510;7.522;2023-02-28T13:27:54;9.20;38.60
58638;DHT22;54976;51.510;7.522;2023-02-28T13:34:15;10.00;38.30
58638;DHT22;54976;51.510;7.522;2023-02-28T13:40:31;9.30;37.60
58638;DHT22;54976;51.510;7.522;2023-02-28T14:00:52;8.00;42.60
58638;DHT22;54976;51.510;7.522;2023-02-28T14:04:09;8.40;42.20
58638;DHT22;54976;51.510;7.522;2023-02-28T14:07:19;9.30;41.70
58638;DHT22;54976;51.510;7.522;2023-02-28T14:13:46;9.30;40.50
58638;DHT22;54976;51.510;7.522;2023-02-28T14:16:48;9.30;39.30
58638;DHT22;54976;51.510;7.522;2023-02-28T14:19:50;9.30;40.70
58638;DHT22;54976;51.510;7.522;2023-02-28T14:33:05;9.70;39.90
58638;DHT22;54976;51.510;7.522;2023-02-28T14:36:26;9.80;39.60
58638;DHT22;54976;51.510;7.522;2023-02-28T14:39:28;10.20;39.10
58638;DHT22;54976;51.510;7.522;2023-02-28T14:42:34;11.20;37.60
58638;DHT22;54976;51.510;7.522;2023-02-28T14:45:35;12.60;35.50
58638;DHT22;54976;51.510;7.522;2023-02-28T14:48:38;13.30;33.20
58638;DHT22;54976;51.510;7.522;2023-02-28T14:51:39;13.60;32.70
58638;DHT22;54976;51.510;7.522;2023-02-28T14:54:41;12.20;33.00
58638;DHT22;54976;51.510;7.522;2023-02-28T14:57:57;12.80;34.00
58638;DHT22;54976;51.510;7.522;2023-02-28T15:01:00;13.40;32.80
58638;DHT22;54976;51.510;7.522;2023-02-28T15:04:05;12.90;31.70
58638;DHT22;54976;51.510;7.522;2023-02-28T15:07:15;13.30;32.00
58638;DHT22;54976;51.510;7.522;2023-02-28T15:10:26;12.80;31.90
58638;DHT22;54976;51.510;7.522;2023-02-28T15:13:47;13.00;31.80
58638;DHT22;54976;51.510;7.522;2023-02-28T15:16:52;13.10;31.70
58638;DHT22;54976;51.510;7.522;2023-02-28T15:19:56;13.40;31.90
58638;DHT22;54976;51.510;7.522;2023-02-28T15:22:57;13.10;31.40
58638;DHT22;54976;51.510;7.522;2023-02-28T15:25:58;12.70;31.60
58638;DHT22;54976;51.510;7.522;2023-02-28T15:29:05;12.90;31.80
58638;DHT22;54976;51.510;7.522;2023-02-28T15:32:07;12.70;32.20
58638;DHT22;54976;51.510;7.522;2023-02-28T15:35:28;12.10;32.90
58638;DHT22;54976;51.510;7.522;2023-02-28T15:38:35;10.90;34.90
58638;DHT22;54976;51.510;7.522;2023-02-28T15:41:37;10.10;36.60
58638;DHT22;54976;51.510;7.522;2023-02-28T15:44:41;10.10;37.40
58638;DHT22;54976;51.510;7.522;2023-02-28T15:47:45;9.80;38.20
58638;DHT22;54976;51.510;7.522;2023-02-28T15:50:50;9.60;38.80
58638;DHT22;54976;51.510;7.522;2023-02-28T15:53:59;9.10;39.50
58638;DHT22;54976;51.510;7.522;2023-02-28T15:57:15;8.50;40.50
58638;DHT22;54976;51.510;7.522;2023-02-28T16:00:23;8.20;41.30
58638;DHT22;54976;51.510;7.522;2023-02-28T16:03:26;8.20;41.70
58638;DHT22;54976;51.510;7.522;2023-02-28T16:09:34;8.10;42.00
58638;DHT22;54976;51.510;7.522;2023-02-28T16:12:36;7.20;42.60
58638;DHT22;54976;51.510;7.522;2023-02-28T16:15:39;6.50;43.70
58638;DHT22;54976;51.510;7.522;2023-02-28T16:18:42;6.10;44.80
58638;DHT22;54976;51.510;7.522;2023-02-28T16:21:43;6.00;45.60
58638;DHT22;54976;51.510;7.522;2023-02-28T16:24:44;5.80;45.70
58638;DHT22;54976;51.510;7.522;2023-02-28T16:27:48;5.70;46.00
58638;DHT22;54976;51.510;7.522;2023-02-28T16:30:54;5.80;46.50
58638;DHT22;54976;51.510;7.522;2023-02-28T16:33:55;5.40;47.20
58638;DHT22;54976;51.510;7.522;2023-02-28T16:36:55;5.30;47.30
58638;DHT22;54976;51.510;7.522;2023-02-28T16:39:56;5.20;47.70
58638;DHT22;54976;51.510;7.522;2023-02-28T16:42:58;5.10;47.80
58638;DHT22;54976;51.510;7.522;2023-02-28T16:46:00;5.00;48.20
58638;DHT22;54976;51.510;7.522;2023-02-28T16:49:01;4.90;48.60
58638;DHT22;54976;51.510;7.522;2023-02-28T16:52:02;4.90;48.90
58638;DHT22;54976;51.510;7.522;2023-02-28T16:55:03;4.80;49.20
58638;DHT22;54976;51.510;7.522;2023-02-28T16:58:04;4.70;49.40
58638;DHT22;54976;51.510;7.522;2023-02-28T17:01:05;4.60;49.80
58638;DHT22;54976;51.510;7.522;2023-02-28T17:04:05;4.50;49.70
58638;DHT22;54976;51.510;7.522;2023-02-28T17:07:11;4.50;49.90
58638;DHT22;54976;51.510;7.522;2023-02-28T17:10:25;4.40;50.30
58638;DHT22;54976;51.510;7.522;2023-02-28T17:13:26;3.90;50.10
58638;DHT22;54976;51.510;7.522;2023-02-28T17:16:35;4.10;50.80
58638;DHT22;54976;51.510;7.522;2023-02-28T17:19:36;4.20;51.00
58638;DHT22;54976;51.510;7.522;2023-02-28T17:22:38;4.10;51.60
58638;DHT22;54976;51.510;7.522;2023-02-28T17:25:39;3.90;51.80
58638;DHT22;54976;51.510;7.522;2023-02-28T17:28:39;3.90;52.30
58638;DHT22;54976;51.510;7.522;2023-02-28T17:31:40;3.90;52.40
58638;DHT22;54976;51.510;7.522;2023-02-28T17:34:41;3.60;52.30
58638;DHT22;54976;51.510;7.522;2023-02-28T17:37:42;3.70;52.40
58638;DHT22;54976;51.510;7.522;2023-02-28T17:40:43;3.50;52.60
58638;DHT22;54976;51.510;7.522;2023-02-28T17:43:44;3.70;53.00
58638;DHT22;54976;51.510;7.522;2023-02-28T17:46:45;3.70;53.00
58638;DHT22;54976;51.510;7.522;2023-02-28T17:49:46;3.20;53.30
58638;DHT22;54976;51.510;7.522;2023-02-28T17:52:48;3.70;53.70
58638;DHT22;54976;51.510;7.522;2023-02-28T17:55:52;3.50;54.10
58638;DHT22;54976;51.510;7.522;2023-02-28T17:58:55;3.30;54.30
58638;DHT22;54976;51.510;7.522;2023-02-28T18:01:56;3.30;54.80
58638;DHT22;54976;51.510;7.522;2023-02-28T18:04:56;3.00;55.00
58638;DHT22;54976;51.510;7.522;2023-02-28T18:07:58;3.30;55.40
58638;DHT22;54976;51.510;7.522;2023-02-28T18:10:59;3.10;55.50
58638;DHT22;54976;51.510;7.522;2023-02-28T18:14:02;3.10;55.70
58638;DHT22;54976;51.510;7.522;2023-02-28T18:17:03;3.00;55.70
58638;DHT22;54976;51.510;7.522;2023-02-28T18:20:04;3.10;56.10
58638;DHT22;54976;51.510;7.522;2023-02-28T18:23:05;3.10;56.60
58638;DHT22;54976;51.510;7.522;2023-02-28T18:26:07;2.70;57.00
58638;DHT22;54976;51.510;7.522;2023-02-28T18:29:08;2.60;57.60
58638;DHT22;54976;51.510;7.522;2023-02-28T18:32:13;2.70;58.20
58638;DHT22;54976;51.510;7.522;2023-02-28T18:35:13;2.40;58.00
58638;DHT22;54976;51.510;7.522;2023-02-28T18:38:16;2.30;58.50
58638;DHT22;54976;51.510;7.522;2023-02-28T18:41:20;2.30;59.20
58638;DHT22;54976;51.510;7.522;2023-02-28T18:44:21;2.40;59.80
58638;DHT22;54976;51.510;7.522;2023-02-28T18:47:21;2.10;60.60
58638;DHT22;54976;51.510;7.522;2023-02-28T18:50:22;2.00;61.80
58638;DHT22;54976;51.510;7.522;2023-02-28T18:53:23;1.60;62.30
58638;DHT22;54976;51.510;7.522;2023-02-28T18:56:24;2.00;63.00
58638;DHT22;54976;51.510;7.522;2023-02-28T18:59:25;2.00;63.50
58638;DHT22;54976;51.510;7.522;2023-02-28T19:02:26;1.90;63.90
58638;DHT22;54976;51.510;7.522;2023-02-28T19:05:27;2.00;64.70
58638;DHT22;54976;51.510;7.522;2023-02-28T19:08:32;1.30;64.20
58638;DHT22;54976;51.510;7.522;2023-02-28T19:11:32;1.50;65.00
58638;DHT22;54976;51.510;7.522;2023-02-28T19:14:34;1.60;66.30
58638;DHT22;54976;51.510;7.522;2023-02-28T19:17:35;1.60;65.50
58638;DHT22;54976;51.510;7.522;2023-02-28T19:20:36;1.20;65.50
58638;DHT22;54976;51.510;7.522;2023-02-28T19:23:37;1.60;67.50
58638;DHT22;54976;51.510;7.522;2023-02-28T19:26:38;1.50;68.80
58638;DHT22;54976;51.510;7.522;2023-02-28T19:29:39;1.50;69.50
58638;DHT22;54976;51.510;7.522;2023-02-28T19:32:39;1.20;69.70
58638;DHT22;54976;51.510;7.522;2023-02-28T19:35:40;1.30;71.20
58638;DHT22;54976;51.510;7.522;2023-02-28T19:38:41;1.20;71.90
58638;DHT22;54976;51.510;7.522;2023-02-28T19:41:43;1.30;71.70
58638;DHT22;54976;51.510;7.522;2023-02-28T19:44:44;1.50;71.90
58638;DHT22;54976;51.510;7.522;2023-02-28T19:47:45;1.20;72.10
58638;DHT22;54976;51.510;7.522;2023-02-28T19:50:45;1.50;71.70
58638;DHT22;54976;51.510;7.522;2023-02-28T19:53:46;1.60;70.70
58638;DHT22;54976;51.510;7.522;2023-02-28T19:56:46;1.80;70.20
58638;DHT22;54976;51.510;7.522;2023-02-28T19:59:47;1.80;70.00
58638;DHT22;54976;51.510;7.522;2023-02-28T20:02:48;1.80;70.10
58638;DHT22;54976;51.510;7.522;2023-02-28T20:06:02;2.00;71.10
58638;DHT22;54976;51.510;7.522;2023-02-28T20:09:03;1.80;71.50
58638;DHT22;54976;51.510;7.522;2023-02-28T20:12:03;1.70;71.20
58638;DHT22;54976;51.510;7.522;2023-02-28T20:15:04;1.70;71.70
58638;DHT22;54976;51.510;7.522;2023-02-28T20:18:05;1.50;72.80
58638;DHT22;54976;51.510;7.522;2023-02-28T20:21:10;1.50;73.40
58638;DHT22;54976;51.510;7.522;2023-02-28T20:24:12;1.40;74.30
58638;DHT22;54976;51.510;7.522;2023-02-28T20:27:13;1.50;74.40
58638;DHT22;54976;51.510;7.522;2023-02-28T20:30:14;1.60;74.70
58638;DHT22;54976;51.510;7.522;2023-02-28T20:33:18;1.70;73.70
58638;DHT22;54976;51.510;7.522;2023-02-28T20:36:19;1.60;73.60
58638;DHT22;54976;51.510;7.522;2023-02-28T20:39:20;1.60;73.70
58638;DHT22;54976;51.510;7.522;2023-02-28T20:42:21;1.70;73.00
58638;DHT22;54976;51.510;7.522;2023-02-28T20:45:22;1.60;73.20
58638;DHT22;54976;51.510;7.522;2023-02-28T20:48:24;1.50;73.50
58638;DHT22;54976;51.510;7.522;2023-02-28T20:51:25;1.10;74.10
58638;DHT22;54976;51.510;7.522;2023-02-28T20:54:25;1.60;76.50
58638;DHT22;54976;51.510;7.522;2023-02-28T20:57:28;1.20;76.60
58638;DHT22;54976;51.510;7.522;2023-02-28T21:00:29;1.10;78.30
58638;DHT22;54976;51.510;7.522;2023-02-28T21:03:30;0.90;78.00
58638;DHT22;54976;51.510;7.522;2023-02-28T21:06:34;0.90;78.80
58638;DHT22;54976;51.510;7.522;2023-02-28T21:09:34;0.80;80.00
58638;DHT22;54976;51.510;7.522;2023-02-28T21:12:35;0.80;81.30
58638;DHT22;54976;51.510;7.522;2023-02-28T21:15:37;0.80;81.60
58638;DHT22;54976;51.510;7.522;2023-02-28T21:18:38;1.00;82.00
58638;DHT22;54976;51.510;7.522;2023-02-28T21:21:41;0.90;81.20
58638;DHT22;54976;51.510;7.522;2023-02-28T21:24:44;0.70;81.10
58638;DHT22;54976;51.510;7.522;2023-02-28T21:27:45;1.00;81.70
58638;DHT22;54976;51.510;7.522;2023-02-28T21:30:46;1.10;83.00
58638;DHT22;54976;51.510;7.522;2023-02-28T21:33:46;1.00;83.20
58638;DHT22;54976;51.510;7.522;2023-02-28T21:36:47;1.00;83.60
58638;DHT22;54976;51.510;7.522;2023-02-28T21:39:48;0.90;84.00